sensor_id;sensor_type;location;lat;lon;timestamp;P1;durP1;ratioP1;P2;durP2;ratioP2
67597;SDS011;62026;39.230;9.122;2023-11-21T00:02:21;5.57;;;3.15;;
67597;SDS011;62026;39.230;9.122;2023-11-21T00:04:48;8.68;;;3.10;;
67597;SDS011;62026;39.230;9.122;2023-11-21T00:07:15;6.10;;;3.00;;
67597;SDS011;62026;39.230;9.122;2023-11-21T00:09:42;5.63;;;2.40;;
67597;SDS011;62026;39.230;9.122;2023-11-21T00:12:08;6.38;;;2.80;;
67597;SDS011;62026;39.230;9.122;2023-11-21T00:14:37;5.95;;;2.80;;
67597;SDS011;62026;39.230;9.122;2023-11-21T00:17:03;7.78;;;2.65;;
67597;SDS011;62026;39.230;9.122;2023-11-21T00:19:30;5.28;;;2.63;;
67597;SDS011;62026;39.230;9.122;2023-11-21T00:21:58;4.63;;;2.30;;
67597;SDS011;62026;39.230;9.122;2023-11-21T00:24:24;8.15;;;3.00;;
67597;SDS011;62026;39.230;9.122;2023-11-21T00:26:51;8.93;;;2.75;;
67597;SDS011;62026;39.230;9.122;2023-11-21T00:29:18;3.97;;;2.30;;
67597;SDS011;62026;39.230;9.122;2023-11-21T00:31:44;3.67;;;2.00;;
67597;SDS011;62026;39.230;9.122;2023-11-21T00:34:11;6.90;;;2.47;;
67597;SDS011;62026;39.230;9.122;2023-11-21T00:36:38;4.90;;;2.10;;
67597;SDS011;62026;39.230;9.122;2023-11-21T00:39:04;7.53;;;2.40;;
67597;SDS011;62026;39.230;9.122;2023-11-21T00:41:31;4.57;;;1.80;;
67597;SDS011;62026;39.230;9.122;2023-11-21T00:43:57;5.28;;;1.52;;
67597;SDS011;62026;39.230;9.122;2023-11-21T00:46:24;5.43;;;1.88;;
67597;SDS011;62026;39.230;9.122;2023-11-21T00:48:53;4.32;;;1.73;;
67597;SDS011;62026;39.230;9.122;2023-11-21T00:51:19;4.18;;;1.52;;
67597;SDS011;62026;39.230;9.122;2023-11-21T00:53:46;3.13;;;1.90;;
67597;SDS011;62026;39.230;9.122;2023-11-21T00:56:13;6.50;;;2.13;;
67597;SDS011;62026;39.230;9.122;2023-11-21T00:58:41;3.03;;;1.75;;
67597;SDS011;62026;39.230;9.122;2023-11-21T01:01:14;4.65;;;1.77;;
67597;SDS011;62026;39.230;9.122;2023-11-21T01:03:45;4.18;;;1.70;;
67597;SDS011;62026;39.230;9.122;2023-11-21T01:06:12;3.30;;;1.58;;
67597;SDS011;62026;39.230;9.122;2023-11-21T01:08:38;7.05;;;2.17;;
67597;SDS011;62026;39.230;9.122;2023-11-21T01:11:04;3.90;;;1.70;;
67597;SDS011;62026;39.230;9.122;2023-11-21T01:13:32;5.97;;;1.42;;
67597;SDS011;62026;39.230;9.122;2023-11-21T01:16:00;6.53;;;1.80;;
67597;SDS011;62026;39.230;9.122;2023-11-21T01:18:26;4.20;;;1.50;;
67597;SDS011;62026;39.230;9.122;2023-11-21T01:20:52;2.80;;;1.20;;
67597;SDS011;62026;39.230;9.122;2023-11-21T01:23:19;2.60;;;1.25;;
67597;SDS011;62026;39.230;9.122;2023-11-21T01:25:45;2.88;;;1.40;;
67597;SDS011;62026;39.230;9.122;2023-11-21T01:28:11;3.65;;;1.10;;
67597;SDS011;62026;39.230;9.122;2023-11-21T01:30:37;4.20;;;1.40;;
67597;SDS011;62026;39.230;9.122;2023-11-21T01:33:03;4.15;;;1.20;;
67597;SDS011;62026;39.230;9.122;2023-11-21T01:35:30;3.83;;;1.30;;
67597;SDS011;62026;39.230;9.122;2023-11-21T01:37:56;2.83;;;1.30;;
67597;SDS011;62026;39.230;9.122;2023-11-21T01:40:22;3.38;;;1.20;;
67597;SDS011;62026;39.230;9.122;2023-11-21T01:42:48;4.85;;;1.00;;
67597;SDS011;62026;39.230;9.122;2023-11-21T01:45:14;2.28;;;1.15;;
67597;SDS011;62026;39.230;9.122;2023-11-21T01:47:40;2.35;;;1.00;;
67597;SDS011;62026;39.230;9.122;2023-11-21T01:50:09;4.03;;;1.10;;
67597;SDS011;62026;39.230;9.122;2023-11-21T01:52:42;3.70;;;1.30;;
67597;SDS011;62026;39.230;9.122;2023-11-21T01:55:11;2.75;;;1.20;;
67597;SDS011;62026;39.230;9.122;2023-11-21T01:57:39;3.08;;;1.23;;
67597;SDS011;62026;39.230;9.122;2023-11-21T02:00:06;3.55;;;1.20;;
67597;SDS011;62026;39.230;9.122;2023-11-21T02:02:42;2.25;;;1.10;;
67597;SDS011;62026;39.230;9.122;2023-11-21T02:05:13;3.78;;;1.20;;
67597;SDS011;62026;39.230;9.122;2023-11-21T02:07:44;2.90;;;1.00;;
67597;SDS011;62026;39.230;9.122;2023-11-21T02:10:16;3.60;;;1.20;;
67597;SDS011;62026;39.230;9.122;2023-11-21T02:12:43;3.13;;;1.27;;
67597;SDS011;62026;39.230;9.122;2023-11-21T02:15:10;2.65;;;1.10;;
67597;SDS011;62026;39.230;9.122;2023-11-21T02:17:45;2.50;;;1.30;;
67597;SDS011;62026;39.230;9.122;2023-11-21T02:20:16;2.72;;;1.27;;
67597;SDS011;62026;39.230;9.122;2023-11-21T02:22:53;4.03;;;1.20;;
67597;SDS011;62026;39.230;9.122;2023-11-21T02:25:33;2.95;;;1.40;;
67597;SDS011;62026;39.230;9.122;2023-11-21T02:28:01;4.25;;;1.42;;
67597;SDS011;62026;39.230;9.122;2023-11-21T02:30:29;2.25;;;1.45;;
67597;SDS011;62026;39.230;9.122;2023-11-21T02:32:59;1.70;;;1.15;;
67597;SDS011;62026;39.230;9.122;2023-11-21T02:35:28;5.15;;;1.70;;
67597;SDS011;62026;39.230;9.122;2023-11-21T02:37:57;3.45;;;1.50;;
67597;SDS011;62026;39.230;9.122;2023-11-21T02:40:24;3.72;;;1.65;;
67597;SDS011;62026;39.230;9.122;2023-11-21T02:42:51;3.60;;;1.65;;
67597;SDS011;62026;39.230;9.122;2023-11-21T02:45:19;3.88;;;1.75;;
67597;SDS011;62026;39.230;9.122;2023-11-21T02:47:46;5.60;;;1.58;;
67597;SDS011;62026;39.230;9.122;2023-11-21T02:50:14;3.45;;;1.23;;
67597;SDS011;62026;39.230;9.122;2023-11-21T02:52:40;4.18;;;1.77;;
67597;SDS011;62026;39.230;9.122;2023-11-21T02:55:06;3.30;;;1.60;;
67597;SDS011;62026;39.230;9.122;2023-11-21T02:57:33;3.45;;;1.75;;
67597;SDS011;62026;39.230;9.122;2023-11-21T02:59:59;6.65;;;1.67;;
67597;SDS011;62026;39.230;9.122;2023-11-21T03:02:25;7.10;;;2.00;;
67597;SDS011;62026;39.230;9.122;2023-11-21T03:04:51;5.07;;;1.80;;
67597;SDS011;62026;39.230;9.122;2023-11-21T03:07:18;3.58;;;1.60;;
67597;SDS011;62026;39.230;9.122;2023-11-21T03:09:44;2.55;;;1.40;;
67597;SDS011;62026;39.230;9.122;2023-11-21T03:12:11;3.35;;;1.50;;
67597;SDS011;62026;39.230;9.122;2023-11-21T03:14:38;3.45;;;1.60;;
67597;SDS011;62026;39.230;9.122;2023-11-21T03:17:07;4.93;;;1.90;;
67597;SDS011;62026;39.230;9.122;2023-11-21T03:19:33;4.63;;;1.70;;
67597;SDS011;62026;39.230;9.122;2023-11-21T03:21:59;4.20;;;1.52;;
67597;SDS011;62026;39.230;9.122;2023-11-21T03:24:25;2.35;;;1.60;;
67597;SDS011;62026;39.230;9.122;2023-11-21T03:26:51;4.00;;;1.60;;
67597;SDS011;62026;39.230;9.122;2023-11-21T03:29:18;1.80;;;1.20;;
67597;SDS011;62026;39.230;9.122;2023-11-21T03:31:44;4.10;;;1.70;;
67597;SDS011;62026;39.230;9.122;2023-11-21T03:34:14;3.30;;;1.60;;
67597;SDS011;62026;39.230;9.122;2023-11-21T03:36:45;3.58;;;1.75;;
67597;SDS011;62026;39.230;9.122;2023-11-21T03:39:12;6.00;;;1.50;;
67597;SDS011;62026;39.230;9.122;2023-11-21T03:41:38;3.83;;;1.60;;
67597;SDS011;62026;39.230;9.122;2023-11-21T03:44:04;4.75;;;1.70;;
67597;SDS011;62026;39.230;9.122;2023-11-21T03:46:30;4.40;;;1.63;;
67597;SDS011;62026;39.230;9.122;2023-11-21T03:48:56;3.83;;;1.40;;
67597;SDS011;62026;39.230;9.122;2023-11-21T03:51:22;2.55;;;1.30;;
67597;SDS011;62026;39.230;9.122;2023-11-21T03:53:48;3.85;;;1.50;;
67597;SDS011;62026;39.230;9.122;2023-11-21T03:56:14;3.55;;;1.40;;
67597;SDS011;62026;39.230;9.122;2023-11-21T03:58:40;2.67;;;1.40;;
67597;SDS011;62026;39.230;9.122;2023-11-21T04:01:06;4.03;;;1.38;;
67597;SDS011;62026;39.230;9.122;2023-11-21T04:03:32;4.00;;;1.48;;
67597;SDS011;62026;39.230;9.122;2023-11-21T04:05:58;3.83;;;1.55;;
67597;SDS011;62026;39.230;9.122;2023-11-21T04:08:26;3.20;;;1.30;;
67597;SDS011;62026;39.230;9.122;2023-11-21T04:10:52;3.53;;;1.40;;
67597;SDS011;62026;39.230;9.122;2023-11-21T04:13:18;3.70;;;1.58;;
67597;SDS011;62026;39.230;9.122;2023-11-21T04:15:44;2.60;;;1.52;;
67597;SDS011;62026;39.230;9.122;2023-11-21T04:18:10;3.58;;;1.30;;
67597;SDS011;62026;39.230;9.122;2023-11-21T04:20:36;4.30;;;1.25;;
67597;SDS011;62026;39.230;9.122;2023-11-21T04:23:02;3.28;;;1.55;;
67597;SDS011;62026;39.230;9.122;2023-11-21T04:25:28;3.53;;;1.50;;
67597;SDS011;62026;39.230;9.122;2023-11-21T04:27:54;2.17;;;1.25;;
67597;SDS011;62026;39.230;9.122;2023-11-21T04:30:20;1.83;;;1.35;;
67597;SDS011;62026;39.230;9.122;2023-11-21T04:32:46;3.15;;;1.52;;
67597;SDS011;62026;39.230;9.122;2023-11-21T04:35:12;2.53;;;1.27;;
67597;SDS011;62026;39.230;9.122;2023-11-21T04:37:38;5.70;;;1.50;;
67597;SDS011;62026;39.230;9.122;2023-11-21T04:40:05;4.10;;;1.30;;
67597;SDS011;62026;39.230;9.122;2023-11-21T04:42:34;3.13;;;1.77;;
67597;SDS011;62026;39.230;9.122;2023-11-21T04:45:04;3.88;;;1.30;;
67597;SDS011;62026;39.230;9.122;2023-11-21T04:47:34;2.90;;;1.30;;
67597;SDS011;62026;39.230;9.122;2023-11-21T04:50:02;2.20;;;1.38;;
67597;SDS011;62026;39.230;9.122;2023-11-21T04:52:29;3.08;;;1.50;;
67597;SDS011;62026;39.230;9.122;2023-11-21T04:54:55;2.50;;;1.40;;
67597;SDS011;62026;39.230;9.122;2023-11-21T04:57:23;3.53;;;1.38;;
67597;SDS011;62026;39.230;9.122;2023-11-21T04:59:49;3.90;;;1.30;;
67597;SDS011;62026;39.230;9.122;2023-11-21T05:02:15;3.88;;;1.48;;
67597;SDS011;62026;39.230;9.122;2023-11-21T05:04:41;4.13;;;1.55;;
67597;SDS011;62026;39.230;9.122;2023-11-21T05:07:10;2.38;;;1.38;;
67597;SDS011;62026;39.230;9.122;2023-11-21T05:09:40;3.80;;;1.60;;
67597;SDS011;62026;39.230;9.122;2023-11-21T05:12:11;2.05;;;1.42;;
67597;SDS011;62026;39.230;9.122;2023-11-21T05:14:39;3.03;;;1.40;;
67597;SDS011;62026;39.230;9.122;2023-11-21T05:17:05;3.97;;;1.50;;
67597;SDS011;62026;39.230;9.122;2023-11-21T05:19:33;5.90;;;1.95;;
67597;SDS011;62026;39.230;9.122;2023-11-21T05:22:00;4.63;;;1.30;;
67597;SDS011;62026;39.230;9.122;2023-11-21T05:24:26;5.35;;;1.40;;
67597;SDS011;62026;39.230;9.122;2023-11-21T05:26:53;2.38;;;1.40;;
67597;SDS011;62026;39.230;9.122;2023-11-21T05:29:19;5.65;;;2.17;;
67597;SDS011;62026;39.230;9.122;2023-11-21T05:31:45;7.28;;;2.08;;
67597;SDS011;62026;39.230;9.122;2023-11-21T05:34:11;6.65;;;2.13;;
67597;SDS011;62026;39.230;9.122;2023-11-21T05:36:37;5.32;;;2.33;;
67597;SDS011;62026;39.230;9.122;2023-11-21T05:39:03;6.15;;;2.30;;
67597;SDS011;62026;39.230;9.122;2023-11-21T05:41:29;3.95;;;1.63;;
67597;SDS011;62026;39.230;9.122;2023-11-21T05:43:55;5.55;;;1.80;;
67597;SDS011;62026;39.230;9.122;2023-11-21T05:46:21;5.82;;;2.00;;
67597;SDS011;62026;39.230;9.122;2023-11-21T05:48:47;4.85;;;2.00;;
67597;SDS011;62026;39.230;9.122;2023-11-21T05:51:13;4.53;;;1.65;;
67597;SDS011;62026;39.230;9.122;2023-11-21T05:53:39;4.82;;;1.85;;
67597;SDS011;62026;39.230;9.122;2023-11-21T05:56:05;3.90;;;1.48;;
67597;SDS011;62026;39.230;9.122;2023-11-21T05:58:32;3.53;;;1.60;;
67597;SDS011;62026;39.230;9.122;2023-11-21T06:00:58;5.05;;;1.63;;
67597;SDS011;62026;39.230;9.122;2023-11-21T06:03:24;3.28;;;1.80;;
67597;SDS011;62026;39.230;9.122;2023-11-21T06:05:50;3.70;;;1.60;;
67597;SDS011;62026;39.230;9.122;2023-11-21T06:08:16;5.70;;;1.48;;
67597;SDS011;62026;39.230;9.122;2023-11-21T06:10:42;4.72;;;1.75;;
67597;SDS011;62026;39.230;9.122;2023-11-21T06:13:09;2.33;;;1.45;;
67597;SDS011;62026;39.230;9.122;2023-11-21T06:15:35;7.57;;;2.30;;
67597;SDS011;62026;39.230;9.122;2023-11-21T06:18:01;4.88;;;1.77;;
67597;SDS011;62026;39.230;9.122;2023-11-21T06:20:27;5.97;;;1.83;;
67597;SDS011;62026;39.230;9.122;2023-11-21T06:22:53;7.82;;;2.00;;
67597;SDS011;62026;39.230;9.122;2023-11-21T06:25:20;3.30;;;1.85;;
67597;SDS011;62026;39.230;9.122;2023-11-21T06:27:46;7.60;;;2.60;;
67597;SDS011;62026;39.230;9.122;2023-11-21T06:30:14;4.82;;;2.20;;
67597;SDS011;62026;39.230;9.122;2023-11-21T06:32:41;4.72;;;2.22;;
67597;SDS011;62026;39.230;9.122;2023-11-21T06:35:11;6.78;;;2.38;;
67597;SDS011;62026;39.230;9.122;2023-11-21T06:37:38;5.57;;;2.10;;
67597;SDS011;62026;39.230;9.122;2023-11-21T06:40:04;6.63;;;2.08;;
67597;SDS011;62026;39.230;9.122;2023-11-21T06:42:31;5.18;;;2.28;;
67597;SDS011;62026;39.230;9.122;2023-11-21T06:44:58;4.00;;;2.20;;
67597;SDS011;62026;39.230;9.122;2023-11-21T06:47:29;6.35;;;2.40;;
67597;SDS011;62026;39.230;9.122;2023-11-21T06:49:55;4.97;;;2.30;;
67597;SDS011;62026;39.230;9.122;2023-11-21T06:52:22;9.48;;;2.55;;
67597;SDS011;62026;39.230;9.122;2023-11-21T06:54:48;9.18;;;2.10;;
67597;SDS011;62026;39.230;9.122;2023-11-21T06:57:17;11.05;;;2.42;;
67597;SDS011;62026;39.230;9.122;2023-11-21T06:59:44;9.13;;;2.75;;
67597;SDS011;62026;39.230;9.122;2023-11-21T07:02:10;4.63;;;2.10;;
67597;SDS011;62026;39.230;9.122;2023-11-21T07:04:36;9.70;;;2.13;;
67597;SDS011;62026;39.230;9.122;2023-11-21T07:07:03;6.18;;;2.10;;
67597;SDS011;62026;39.230;9.122;2023-11-21T07:09:30;7.55;;;2.33;;
67597;SDS011;62026;39.230;9.122;2023-11-21T07:11:56;9.57;;;2.80;;
67597;SDS011;62026;39.230;9.122;2023-11-21T07:14:22;7.15;;;2.67;;
67597;SDS011;62026;39.230;9.122;2023-11-21T07:16:48;6.25;;;2.40;;
67597;SDS011;62026;39.230;9.122;2023-11-21T07:19:14;6.53;;;2.50;;
67597;SDS011;62026;39.230;9.122;2023-11-21T07:21:40;7.05;;;2.30;;
67597;SDS011;62026;39.230;9.122;2023-11-21T07:24:07;5.30;;;2.38;;
67597;SDS011;62026;39.230;9.122;2023-11-21T07:26:34;6.60;;;2.30;;
67597;SDS011;62026;39.230;9.122;2023-11-21T07:29:03;8.60;;;2.55;;
67597;SDS011;62026;39.230;9.122;2023-11-21T07:31:31;5.72;;;2.22;;
67597;SDS011;62026;39.230;9.122;2023-11-21T07:33:59;3.88;;;2.10;;
67597;SDS011;62026;39.230;9.122;2023-11-21T07:36:26;6.10;;;1.88;;
67597;SDS011;62026;39.230;9.122;2023-11-21T07:38:52;3.35;;;1.55;;
67597;SDS011;62026;39.230;9.122;2023-11-21T07:41:19;5.30;;;1.42;;
67597;SDS011;62026;39.230;9.122;2023-11-21T07:43:46;5.65;;;1.50;;
67597;SDS011;62026;39.230;9.122;2023-11-21T07:46:12;4.47;;;1.45;;
67597;SDS011;62026;39.230;9.122;2023-11-21T07:48:40;4.43;;;1.63;;
67597;SDS011;62026;39.230;9.122;2023-11-21T07:51:07;3.40;;;1.60;;
67597;SDS011;62026;39.230;9.122;2023-11-21T07:53:35;5.22;;;1.83;;
67597;SDS011;62026;39.230;9.122;2023-11-21T07:56:05;5.97;;;1.60;;
67597;SDS011;62026;39.230;9.122;2023-11-21T07:58:33;8.30;;;1.57;;
67597;SDS011;62026;39.230;9.122;2023-11-21T08:01:01;4.40;;;1.63;;
67597;SDS011;62026;39.230;9.122;2023-11-21T08:03:28;5.57;;;1.65;;
67597;SDS011;62026;39.230;9.122;2023-11-21T08:05:59;3.45;;;1.77;;
67597;SDS011;62026;39.230;9.122;2023-11-21T08:08:25;9.38;;;2.10;;
67597;SDS011;62026;39.230;9.122;2023-11-21T08:10:52;7.68;;;2.22;;
67597;SDS011;62026;39.230;9.122;2023-11-21T08:13:22;5.32;;;1.65;;
67597;SDS011;62026;39.230;9.122;2023-11-21T08:15:53;9.50;;;1.85;;
67597;SDS011;62026;39.230;9.122;2023-11-21T08:18:21;5.55;;;1.42;;
67597;SDS011;62026;39.230;9.122;2023-11-21T08:20:48;4.78;;;1.33;;
67597;SDS011;62026;39.230;9.122;2023-11-21T08:23:14;5.07;;;1.15;;
67597;SDS011;62026;39.230;9.122;2023-11-21T08:25:43;6.68;;;1.23;;
67597;SDS011;62026;39.230;9.122;2023-11-21T08:28:10;2.85;;;1.00;;
67597;SDS011;62026;39.230;9.122;2023-11-21T08:30:37;1.60;;;0.73;;
67597;SDS011;62026;39.230;9.122;2023-11-21T08:33:03;3.72;;;1.00;;
67597;SDS011;62026;39.230;9.122;2023-11-21T08:35:29;4.18;;;1.10;;
67597;SDS011;62026;39.230;9.122;2023-11-21T08:37:56;2.58;;;0.93;;
67597;SDS011;62026;39.230;9.122;2023-11-21T08:40:22;4.28;;;1.15;;
67597;SDS011;62026;39.230;9.122;2023-11-21T08:42:48;5.13;;;1.20;;
67597;SDS011;62026;39.230;9.122;2023-11-21T08:45:17;5.20;;;1.05;;
67597;SDS011;62026;39.230;9.122;2023-11-21T08:47:43;2.53;;;1.00;;
67597;SDS011;62026;39.230;9.122;2023-11-21T08:50:09;6.28;;;1.17;;
67597;SDS011;62026;39.230;9.122;2023-11-21T08:52:40;4.15;;;1.27;;
67597;SDS011;62026;39.230;9.122;2023-11-21T08:55:08;5.72;;;1.25;;
67597;SDS011;62026;39.230;9.122;2023-11-21T08:57:37;5.82;;;1.40;;
67597;SDS011;62026;39.230;9.122;2023-11-21T09:00:09;5.30;;;1.60;;
67597;SDS011;62026;39.230;9.122;2023-11-21T09:02:42;6.43;;;2.40;;
67597;SDS011;62026;39.230;9.122;2023-11-21T09:05:09;13.27;;;2.97;;
67597;SDS011;62026;39.230;9.122;2023-11-21T09:07:37;8.95;;;2.97;;
67597;SDS011;62026;39.230;9.122;2023-11-21T09:10:06;10.15;;;2.78;;
67597;SDS011;62026;39.230;9.122;2023-11-21T09:12:37;10.25;;;2.88;;
67597;SDS011;62026;39.230;9.122;2023-11-21T09:15:03;14.32;;;3.53;;
67597;SDS011;62026;39.230;9.122;2023-11-21T09:17:34;9.50;;;2.80;;
67597;SDS011;62026;39.230;9.122;2023-11-21T09:20:00;8.02;;;2.92;;
67597;SDS011;62026;39.230;9.122;2023-11-21T09:22:28;16.02;;;2.80;;
67597;SDS011;62026;39.230;9.122;2023-11-21T09:24:55;8.40;;;3.00;;
67597;SDS011;62026;39.230;9.122;2023-11-21T09:27:23;6.68;;;2.70;;
67597;SDS011;62026;39.230;9.122;2023-11-21T09:29:49;8.50;;;2.50;;
67597;SDS011;62026;39.230;9.122;2023-11-21T09:32:16;9.00;;;2.40;;
67597;SDS011;62026;39.230;9.122;2023-11-21T09:34:43;7.05;;;2.50;;
67597;SDS011;62026;39.230;9.122;2023-11-21T09:37:10;13.15;;;2.15;;
67597;SDS011;62026;39.230;9.122;2023-11-21T09:39:36;10.18;;;2.20;;
67597;SDS011;62026;39.230;9.122;2023-11-21T09:42:07;9.50;;;2.22;;
67597;SDS011;62026;39.230;9.122;2023-11-21T09:45:03;9.13;;;1.90;;
67597;SDS011;62026;39.230;9.122;2023-11-21T09:47:39;8.88;;;2.33;;
67597;SDS011;62026;39.230;9.122;2023-11-21T09:50:05;14.40;;;2.60;;
67597;SDS011;62026;39.230;9.122;2023-11-21T09:52:39;12.43;;;2.10;;
67597;SDS011;62026;39.230;9.122;2023-11-21T09:55:24;7.35;;;2.25;;
67597;SDS011;62026;39.230;9.122;2023-11-21T09:57:55;12.40;;;2.30;;
67597;SDS011;62026;39.230;9.122;2023-11-21T10:00:22;11.80;;;2.50;;
67597;SDS011;62026;39.230;9.122;2023-11-21T10:02:52;9.05;;;2.28;;
67597;SDS011;62026;39.230;9.122;2023-11-21T10:05:21;13.32;;;2.70;;
67597;SDS011;62026;39.230;9.122;2023-11-21T10:07:48;14.70;;;2.95;;
67597;SDS011;62026;39.230;9.122;2023-11-21T10:10:17;13.88;;;2.97;;
67597;SDS011;62026;39.230;9.122;2023-11-21T10:12:48;10.93;;;2.47;;
67597;SDS011;62026;39.230;9.122;2023-11-21T10:15:18;12.80;;;2.70;;
67597;SDS011;62026;39.230;9.122;2023-11-21T10:17:48;9.50;;;2.40;;
67597;SDS011;62026;39.230;9.122;2023-11-21T10:20:15;11.80;;;3.05;;
67597;SDS011;62026;39.230;9.122;2023-11-21T10:22:43;11.70;;;2.70;;
67597;SDS011;62026;39.230;9.122;2023-11-21T10:25:09;13.00;;;3.00;;
67597;SDS011;62026;39.230;9.122;2023-11-21T10:27:38;10.70;;;2.40;;
67597;SDS011;62026;39.230;9.122;2023-11-21T10:30:05;14.10;;;2.88;;
67597;SDS011;62026;39.230;9.122;2023-11-21T10:32:33;10.45;;;2.60;;
67597;SDS011;62026;39.230;9.122;2023-11-21T10:34:59;15.10;;;2.95;;
67597;SDS011;62026;39.230;9.122;2023-11-21T10:37:27;11.10;;;2.65;;
67597;SDS011;62026;39.230;9.122;2023-11-21T10:39:59;11.73;;;2.80;;
67597;SDS011;62026;39.230;9.122;2023-11-21T10:42:25;13.95;;;2.72;;
67597;SDS011;62026;39.230;9.122;2023-11-21T10:44:55;14.43;;;3.25;;
67597;SDS011;62026;39.230;9.122;2023-11-21T10:47:21;10.80;;;2.72;;
67597;SDS011;62026;39.230;9.122;2023-11-21T10:49:51;15.52;;;2.63;;
67597;SDS011;62026;39.230;9.122;2023-11-21T10:52:19;9.88;;;2.60;;
67597;SDS011;62026;39.230;9.122;2023-11-21T10:54:45;10.98;;;2.30;;
67597;SDS011;62026;39.230;9.122;2023-11-21T10:57:13;12.65;;;2.17;;
67597;SDS011;62026;39.230;9.122;2023-11-21T10:59:45;15.13;;;2.97;;
67597;SDS011;62026;39.230;9.122;2023-11-21T11:02:24;15.35;;;3.15;;
67597;SDS011;62026;39.230;9.122;2023-11-21T11:04:53;11.15;;;2.30;;
67597;SDS011;62026;39.230;9.122;2023-11-21T11:07:27;13.00;;;2.40;;
67597;SDS011;62026;39.230;9.122;2023-11-21T11:09:55;7.67;;;2.20;;
67597;SDS011;62026;39.230;9.122;2023-11-21T11:12:24;10.48;;;2.05;;
67597;SDS011;62026;39.230;9.122;2023-11-21T11:14:50;11.25;;;2.63;;
67597;SDS011;62026;39.230;9.122;2023-11-21T11:17:19;13.32;;;2.40;;
67597;SDS011;62026;39.230;9.122;2023-11-21T11:19:47;11.82;;;2.13;;
67597;SDS011;62026;39.230;9.122;2023-11-21T11:25:07;10.07;;;2.00;;
67597;SDS011;62026;39.230;9.122;2023-11-21T11:27:54;8.43;;;2.00;;
67597;SDS011;62026;39.230;9.122;2023-11-21T11:36:34;10.13;;;1.80;;
67597;SDS011;62026;39.230;9.122;2023-11-21T11:39:27;17.02;;;1.67;;
67597;SDS011;62026;39.230;9.122;2023-11-21T11:42:12;6.43;;;1.98;;
67597;SDS011;62026;39.230;9.122;2023-11-21T11:47:29;13.23;;;2.15;;
67597;SDS011;62026;39.230;9.122;2023-11-21T11:53:24;11.73;;;2.10;;
67597;SDS011;62026;39.230;9.122;2023-11-21T11:55:39;17.48;;;2.17;;
67597;SDS011;62026;39.230;9.122;2023-11-21T11:58:08;11.30;;;1.80;;
67597;SDS011;62026;39.230;9.122;2023-11-21T12:00:35;13.25;;;2.10;;
67597;SDS011;62026;39.230;9.122;2023-11-21T12:03:06;15.70;;;2.00;;
67597;SDS011;62026;39.230;9.122;2023-11-21T12:05:34;18.27;;;2.17;;
67597;SDS011;62026;39.230;9.122;2023-11-21T12:08:04;16.38;;;2.00;;
67597;SDS011;62026;39.230;9.122;2023-11-21T12:10:33;23.73;;;2.20;;
67597;SDS011;62026;39.230;9.122;2023-11-21T12:13:02;26.27;;;2.50;;
67597;SDS011;62026;39.230;9.122;2023-11-21T12:15:37;10.35;;;1.92;;
67597;SDS011;62026;39.230;9.122;2023-11-21T12:18:05;11.63;;;2.13;;
67597;SDS011;62026;39.230;9.122;2023-11-21T12:20:31;11.98;;;1.85;;
67597;SDS011;62026;39.230;9.122;2023-11-21T12:23:03;15.40;;;2.15;;
67597;SDS011;62026;39.230;9.122;2023-11-21T12:25:31;17.52;;;2.08;;
67597;SDS011;62026;39.230;9.122;2023-11-21T12:27:58;17.15;;;2.28;;
67597;SDS011;62026;39.230;9.122;2023-11-21T12:30:27;14.00;;;1.77;;
67597;SDS011;62026;39.230;9.122;2023-11-21T12:32:58;12.45;;;1.95;;
67597;SDS011;62026;39.230;9.122;2023-11-21T12:35:31;10.95;;;1.45;;
67597;SDS011;62026;39.230;9.122;2023-11-21T12:38:02;16.88;;;2.53;;
67597;SDS011;62026;39.230;9.122;2023-11-21T12:40:34;14.88;;;2.25;;
67597;SDS011;62026;39.230;9.122;2023-11-21T12:43:00;10.48;;;2.13;;
67597;SDS011;62026;39.230;9.122;2023-11-21T12:45:29;20.88;;;3.60;;
67597;SDS011;62026;39.230;9.122;2023-11-21T12:50:33;17.08;;;2.08;;
67597;SDS011;62026;39.230;9.122;2023-11-21T12:53:08;15.23;;;2.33;;
67597;SDS011;62026;39.230;9.122;2023-11-21T12:55:43;18.23;;;2.58;;
67597;SDS011;62026;39.230;9.122;2023-11-21T12:58:15;15.10;;;1.85;;
67597;SDS011;62026;39.230;9.122;2023-11-21T13:00:45;13.60;;;1.83;;
67597;SDS011;62026;39.230;9.122;2023-11-21T13:05:43;13.60;;;1.80;;
67597;SDS011;62026;39.230;9.122;2023-11-21T13:08:12;7.57;;;1.27;;
67597;SDS011;62026;39.230;9.122;2023-11-21T13:10:39;17.75;;;1.70;;
67597;SDS011;62026;39.230;9.122;2023-11-21T13:13:10;11.20;;;1.33;;
67597;SDS011;62026;39.230;9.122;2023-11-21T13:15:48;11.75;;;1.80;;
67597;SDS011;62026;39.230;9.122;2023-11-21T13:18:22;6.60;;;1.65;;
67597;SDS011;62026;39.230;9.122;2023-11-21T13:20:49;11.88;;;2.20;;
67597;SDS011;62026;39.230;9.122;2023-11-21T13:23:16;13.73;;;1.60;;
67597;SDS011;62026;39.230;9.122;2023-11-21T13:25:42;11.48;;;1.98;;
67597;SDS011;62026;39.230;9.122;2023-11-21T13:28:10;11.27;;;1.90;;
67597;SDS011;62026;39.230;9.122;2023-11-21T13:30:38;10.25;;;1.90;;
67597;SDS011;62026;39.230;9.122;2023-11-21T13:33:05;13.30;;;2.08;;
67597;SDS011;62026;39.230;9.122;2023-11-21T13:35:34;13.32;;;1.80;;
67597;SDS011;62026;39.230;9.122;2023-11-21T13:38:11;15.35;;;1.90;;
67597;SDS011;62026;39.230;9.122;2023-11-21T13:40:42;17.35;;;2.30;;
67597;SDS011;62026;39.230;9.122;2023-11-21T13:43:20;18.75;;;2.33;;
67597;SDS011;62026;39.230;9.122;2023-11-21T13:45:50;14.40;;;1.90;;
67597;SDS011;62026;39.230;9.122;2023-11-21T13:48:23;13.35;;;1.60;;
67597;SDS011;62026;39.230;9.122;2023-11-21T13:51:19;17.17;;;2.28;;
67597;SDS011;62026;39.230;9.122;2023-11-21T13:53:46;9.50;;;1.85;;
67597;SDS011;62026;39.230;9.122;2023-11-21T13:56:16;14.00;;;1.73;;
67597;SDS011;62026;39.230;9.122;2023-11-21T13:58:46;11.70;;;1.98;;
67597;SDS011;62026;39.230;9.122;2023-11-21T14:01:16;11.38;;;1.70;;
67597;SDS011;62026;39.230;9.122;2023-11-21T14:03:56;12.10;;;2.00;;
67597;SDS011;62026;39.230;9.122;2023-11-21T14:06:49;9.75;;;2.22;;
67597;SDS011;62026;39.230;9.122;2023-11-21T14:09:19;10.05;;;1.30;;
67597;SDS011;62026;39.230;9.122;2023-11-21T14:11:58;8.95;;;1.95;;
67597;SDS011;62026;39.230;9.122;2023-11-21T14:14:26;18.08;;;1.83;;
67597;SDS011;62026;39.230;9.122;2023-11-21T14:16:53;15.48;;;2.25;;
67597;SDS011;62026;39.230;9.122;2023-11-21T14:19:21;11.25;;;1.63;;
67597;SDS011;62026;39.230;9.122;2023-11-21T14:21:51;11.30;;;1.75;;
67597;SDS011;62026;39.230;9.122;2023-11-21T14:24:18;13.55;;;1.92;;
67597;SDS011;62026;39.230;9.122;2023-11-21T14:26:45;15.30;;;2.40;;
67597;SDS011;62026;39.230;9.122;2023-11-21T14:29:13;14.65;;;2.13;;
67597;SDS011;62026;39.230;9.122;2023-11-21T14:31:46;8.73;;;1.73;;
67597;SDS011;62026;39.230;9.122;2023-11-21T14:34:13;16.50;;;1.80;;
67597;SDS011;62026;39.230;9.122;2023-11-21T14:36:40;14.68;;;2.10;;
67597;SDS011;62026;39.230;9.122;2023-11-21T14:39:08;11.02;;;1.70;;
67597;SDS011;62026;39.230;9.122;2023-11-21T14:41:48;11.98;;;1.73;;
67597;SDS011;62026;39.230;9.122;2023-11-21T14:44:15;17.17;;;1.85;;
67597;SDS011;62026;39.230;9.122;2023-11-21T14:46:42;15.20;;;2.30;;
67597;SDS011;62026;39.230;9.122;2023-11-21T14:49:12;12.93;;;2.05;;
67597;SDS011;62026;39.230;9.122;2023-11-21T14:51:49;11.20;;;2.00;;
67597;SDS011;62026;39.230;9.122;2023-11-21T14:54:32;11.07;;;1.65;;
67597;SDS011;62026;39.230;9.122;2023-11-21T14:57:10;8.70;;;1.25;;
67597;SDS011;62026;39.230;9.122;2023-11-21T14:59:44;5.35;;;1.25;;
67597;SDS011;62026;39.230;9.122;2023-11-21T15:02:14;11.55;;;1.75;;
67597;SDS011;62026;39.230;9.122;2023-11-21T15:04:46;7.35;;;1.50;;
67597;SDS011;62026;39.230;9.122;2023-11-21T15:07:13;9.02;;;1.25;;
67597;SDS011;62026;39.230;9.122;2023-11-21T15:09:39;5.07;;;1.10;;
67597;SDS011;62026;39.230;9.122;2023-11-21T15:12:11;7.88;;;1.45;;